Time;durP1;ratioP1;P1;durP2;ratioP2;P2;SDS_P1;SDS_P2;PMS_P1;PMS_P2;Temp;Humidity;BMP_temperature;BMP_pressure;BME280_temperature;BME280_humidity;BME280_pressure;Samples;Min_cycle;Max_cycle;Signal;HPM_P1;HPM_P2
2022/07/03 00:00:30;;;;;;;8.90;6.45;;;;;;;17.94;69.19;101660.34;5011151;28;20038;-53
2022/07/03 00:02:55;;;;;;;11.30;6.80;;;;;;;17.90;69.21;101654.16;5011093;28;20064;-53
2022/07/03 00:05:20;;;;;;;9.55;7.18;;;;;;;17.87;69.30;101659.38;5011464;28;20050;-53
2022/07/03 00:07:46;;;;;;;10.63;8.18;;;;;;;17.82;68.97;101664.63;5010585;28;20061;-52
2022/07/03 00:10:11;;;;;;;10.82;8.32;;;;;;;17.81;68.90;101665.50;5010905;28;20060;-53
2022/07/03 00:12:37;;;;;;;10.55;7.75;;;;;;;17.75;69.20;101662.81;5011476;28;20033;-52
2022/07/03 00:15:03;;;;;;;13.85;7.65;;;;;;;17.73;69.30;101664.59;5010605;28;20033;-53
2022/07/03 00:17:28;;;;;;;8.43;7.00;;;;;;;17.71;68.68;101664.56;5011324;28;20129;-53
2022/07/03 00:19:54;;;;;;;9.20;6.90;;;;;;;17.70;68.75;101670.72;5009879;28;20549;-52
2022/07/03 00:22:20;;;;;;;11.10;7.15;;;;;;;17.69;68.38;101673.34;5011835;28;20030;-51
2022/07/03 00:24:52;;;;;;;9.32;7.10;;;;;;;17.64;68.62;101680.31;5010621;28;20030;-52
2022/07/03 00:27:19;;;;;;;11.05;8.32;;;;;;;17.59;69.73;101700.50;5009682;28;20029;-51
2022/07/03 00:29:45;;;;;;;9.52;8.30;;;;;;;17.54;70.31;101695.19;5010764;28;20018;-52
2022/07/03 00:32:13;;;;;;;12.05;9.80;;;;;;;17.43;70.43;101694.22;5011779;28;20028;-52
2022/07/03 00:34:40;;;;;;;12.10;9.98;;;;;;;17.42;69.74;101700.34;5011498;28;20206;-51
2022/07/03 00:37:10;;;;;;;14.45;9.77;;;;;;;17.39;69.98;101703.81;5009679;28;20032;-52
2022/07/03 00:39:38;;;;;;;11.73;10.23;;;;;;;17.34;70.22;101706.41;5007455;28;20118;-52
2022/07/03 00:42:05;;;;;;;12.43;10.30;;;;;;;17.33;70.38;101699.38;5009986;28;20029;-52
2022/07/03 00:44:33;;;;;;;11.60;10.15;;;;;;;17.32;70.05;101700.25;5011492;28;20044;-53
2022/07/03 00:47:02;;;;;;;12.27;10.87;;;;;;;17.30;70.23;101699.34;5009651;28;20479;-52
2022/07/03 00:49:29;;;;;;;14.60;10.45;;;;;;;17.27;70.03;101695.81;5010439;28;20295;-52
2022/07/03 00:51:56;;;;;;;13.55;10.23;;;;;;;17.24;70.43;101698.44;5011259;28;20033;-53
2022/07/03 00:54:22;;;;;;;11.48;10.23;;;;;;;17.23;70.02;101697.53;5010715;28;20030;-53
2022/07/03 00:56:54;;;;;;;13.45;10.10;;;;;;;17.24;70.04;101693.16;5010079;28;20026;-52
2022/07/03 00:59:19;;;;;;;12.65;9.88;;;;;;;17.23;69.60;101697.53;5012239;28;20026;-51
2022/07/03 01:01:46;;;;;;;11.90;9.88;;;;;;;17.23;69.89;101697.53;5010353;28;20386;-52
2022/07/03 01:04:34;;;;;;;12.27;9.85;;;;;;;17.23;69.08;101691.38;5010118;28;20041;-52
2022/07/03 01:07:05;;;;;;;12.82;10.27;;;;;;;17.21;69.78;101694.88;5009899;28;20503;-52
2022/07/03 01:10:05;;;;;;;11.77;9.70;;;;;;;17.21;69.66;101689.59;5009471;28;20037;-52
2022/07/03 01:13:08;;;;;;;13.60;10.82;;;;;;;17.21;69.58;101688.75;5009378;28;20037;-52
2022/07/03 01:15:49;;;;;;;11.88;10.38;;;;;;;17.18;70.49;101692.22;5009280;28;20068;-52
2022/07/03 01:18:29;;;;;;;12.88;10.38;;;;;;;17.16;70.14;101693.06;5010387;28;20057;-56
2022/07/03 01:21:15;;;;;;;13.07;10.23;;;;;;;17.16;69.58;101703.59;5010434;28;20407;-56
2022/07/03 01:23:51;;;;;;;14.73;11.30;;;;;;;17.13;69.88;101696.56;5005599;28;20041;-56
2022/07/03 01:26:18;;;;;;;13.02;10.23;;;;;;;17.09;69.90;101702.66;5009437;28;20026;-55
2022/07/03 01:28:45;;;;;;;11.73;10.35;;;;;;;17.06;69.20;101700.00;5010242;28;20099;-56
2022/07/03 01:31:17;;;;;;;12.88;10.10;;;;;;;17.02;69.61;101695.56;5009402;28;20029;-55
2022/07/03 01:33:45;;;;;;;11.27;9.82;;;;;;;17.03;69.29;101702.59;5009702;28;20393;-55
2022/07/03 01:36:15;;;;;;;12.68;10.02;;;;;;;17.00;69.43;101699.91;5009933;28;20037;-55
2022/07/03 01:38:41;;;;;;;13.77;9.18;;;;;;;16.97;69.73;101684.09;5010723;28;20109;-55
2022/07/03 01:41:09;;;;;;;11.23;9.77;;;;;;;16.92;70.05;101688.44;5008118;28;20041;-55
2022/07/03 01:43:48;;;;;;;13.25;9.57;;;;;;;16.90;69.60;101687.53;5007848;28;20034;-56
2022/07/03 01:46:16;;;;;;;13.90;9.63;;;;;;;16.88;69.80;101687.50;5009342;28;20057;-55
2022/07/03 01:48:44;;;;;;;13.10;10.50;;;;;;;16.88;69.29;101687.50;5009422;28;20102;-55
2022/07/03 01:51:16;;;;;;;10.23;9.13;;;;;;;16.86;69.40;101690.09;5009580;28;20034;-55
2022/07/03 01:53:47;;;;;;;13.18;9.90;;;;;;;16.85;69.38;101701.47;5007315;28;20059;-56
2022/07/03 01:56:15;;;;;;;11.60;9.70;;;;;;;16.82;69.47;101700.56;5009445;28;20164;-55
2022/07/03 01:58:40;;;;;;;12.43;9.48;;;;;;;16.79;69.71;101690.88;5008067;28;20139;-55
2022/07/03 02:01:21;;;;;;;12.05;9.48;;;;;;;16.78;69.47;101690.88;5010152;28;20527;-56
2022/07/03 02:04:14;;;;;;;12.27;9.70;;;;;;;16.75;69.04;101690.84;5007861;28;20181;-56
2022/07/03 02:06:43;;;;;;;13.70;9.13;;;;;;;16.70;69.82;101690.78;5006564;28;20084;-56
2022/07/03 02:09:11;;;;;;;11.70;9.65;;;;;;;16.69;69.71;101689.03;5009326;28;20040;-55
2022/07/03 02:11:43;;;;;;;13.57;9.07;;;;;;;16.67;70.01;101683.75;5008282;28;20497;-54
2022/07/03 02:14:25;;;;;;;10.93;9.02;;;;;;;16.63;69.96;101675.81;5009608;28;20046;-57
2022/07/03 02:17:10;;;;;;;12.95;9.27;;;;;;;16.63;69.61;101667.91;5009928;28;20030;-52
2022/07/03 02:19:55;;;;;;;12.40;9.52;;;;;;;16.61;69.64;101681.03;5003578;28;20033;-54
2022/07/03 02:22:25;;;;;;;12.25;9.20;;;;;;;16.56;70.38;101666.06;5007710;28;20040;-53
2022/07/03 02:24:52;;;;;;;11.73;9.00;;;;;;;16.52;70.27;101679.19;5008740;28;20165;-52
2022/07/03 02:27:22;;;;;;;12.70;9.45;;;;;;;16.48;70.05;101666.84;5008908;28;20038;-53
2022/07/03 02:29:59;;;;;;;12.05;9.00;;;;;;;16.43;70.33;101671.16;5010365;28;20051;-53
2022/07/03 02:32:26;;;;;;;11.55;9.75;;;;;;;16.41;70.35;101677.25;5008822;28;20192;-53
2022/07/03 02:35:02;;;;;;;14.52;9.88;;;;;;;16.41;70.17;101682.50;5008057;28;20021;-51
2022/07/03 02:37:31;;;;;;;13.50;9.25;;;;;;;16.38;70.58;101678.13;5001538;28;20033;-52
2022/07/03 02:40:04;;;;;;;;;;;;;;;16.47;69.28;101690.50;5009360;28;20571;-53
2022/07/03 02:42:39;;;;;;;12.90;9.85;;;;;;;16.39;70.63;101685.13;5009182;28;19990;-53
2022/07/03 02:45:07;;;;;;;13.85;9.77;;;;;;;16.34;70.63;101684.19;5009723;28;20037;-53
2022/07/03 02:47:32;;;;;;;11.80;9.60;;;;;;;16.31;71.05;101682.41;5009083;28;20103;-53
2022/07/03 02:50:10;;;;;;;11.37;9.23;;;;;;;16.28;71.09;101679.75;5008981;28;20428;-52
2022/07/03 02:52:38;;;;;;;14.80;9.70;;;;;;;16.21;71.66;101687.53;5007692;28;20338;-53
2022/07/03 02:55:30;;;;;;;12.68;10.00;;;;;;;16.16;70.96;101676.94;5009356;28;20519;-53
2022/07/03 02:58:22;;;;;;;12.23;9.80;;;;;;;16.08;71.85;101674.19;5002893;28;20125;-52
2022/07/03 03:00:57;;;;;;;12.68;9.63;;;;;;;16.00;72.35;101675.81;5003716;28;20116;-53
2022/07/03 03:03:27;;;;;;;13.52;10.05;;;;;;;15.98;72.04;101669.69;5008727;28;20485;-51
2022/07/03 03:05:55;;;;;;;13.07;9.73;;;;;;;15.92;73.12;101672.22;5009333;28;20046;-52
2022/07/03 03:08:55;;;;;;;13.43;10.32;;;;;;;15.87;72.47;101671.25;5005453;28;20030;-52
2022/07/03 03:11:31;;;;;;;13.00;9.68;;;;;;;15.86;72.34;101672.09;5007151;28;20045;-52
2022/07/03 03:13:59;;;;;;;12.73;9.43;;;;;;;15.84;72.04;101679.09;5003855;28;20072;-53
2022/07/03 03:16:26;;;;;;;14.63;10.20;;;;;;;15.84;71.92;101679.09;5008847;28;20161;-53
2022/07/03 03:18:52;;;;;;;13.02;9.75;;;;;;;15.80;71.99;101684.31;5002102;28;20388;-52
2022/07/03 03:21:19;;;;;;;12.70;9.50;;;;;;;15.78;71.53;101685.09;5009068;28;20113;-52
2022/07/03 03:23:49;;;;;;;12.30;9.23;;;;;;;15.74;71.87;101691.16;5007658;28;20485;-52
2022/07/03 03:26:28;;;;;;;10.90;9.02;;;;;;;15.70;71.87;101692.88;5005563;28;20446;-53
2022/07/03 03:28:54;;;;;;;11.10;8.82;;;;;;;15.69;72.16;101692.88;5010695;28;20594;-53
2022/07/03 03:31:20;;;;;;;13.38;9.27;;;;;;;15.66;72.10;101685.81;5012024;28;20175;-52
2022/07/03 03:33:49;;;;;;;14.30;9.80;;;;;;;15.63;72.41;101686.63;5012035;28;20021;-52
2022/07/03 03:36:16;;;;;;;11.00;9.17;;;;;;;15.60;72.18;101686.59;5012300;28;20212;-52
2022/07/03 03:38:42;;;;;;;11.73;9.65;;;;;;;15.57;72.36;101691.78;5007740;28;20497;-53
2022/07/03 03:41:08;;;;;;;13.27;9.80;;;;;;;15.55;72.14;101695.25;5012599;28;20064;-52
2022/07/03 03:43:35;;;;;;;11.98;9.77;;;;;;;15.52;72.76;101695.19;5011864;28;20026;-53
2022/07/03 03:46:01;;;;;;;11.98;9.40;;;;;;;15.52;72.45;101692.56;5012762;28;20334;-53
2022/07/03 03:48:27;;;;;;;15.68;10.57;;;;;;;15.52;73.40;101698.69;5010166;28;20030;-57
2022/07/03 03:50:53;;;;;;;16.98;11.88;;;;;;;15.53;73.49;101694.34;5010135;28;20117;-56
2022/07/03 03:53:19;;;;;;;17.17;12.50;;;;;;;15.54;73.67;101691.75;5013118;28;20033;-56
2022/07/03 03:56:08;;;;;;;14.93;12.15;;;;;;;15.56;73.63;101695.28;5011252;28;20034;-56
2022/07/03 03:58:35;;;;;;;17.92;11.32;;;;;;;15.57;73.99;101698.78;5012713;28;20030;-56
2022/07/03 04:01:03;;;;;;;16.70;11.43;;;;;;;15.57;74.27;101693.50;5012538;28;20026;-56
2022/07/03 04:03:29;;;;;;;16.73;12.25;;;;;;;15.55;74.72;101693.50;5011159;28;20029;-56
2022/07/03 04:05:55;;;;;;;16.30;12.60;;;;;;;15.57;74.45;101685.63;5011158;28;20401;-56
2022/07/03 04:08:22;;;;;;;16.17;12.52;;;;;;;15.59;74.15;101695.31;5012250;28;20034;-56
2022/07/03 04:10:48;;;;;;;18.00;13.73;;;;;;;15.62;74.70;101698.00;5012995;28;20037;-56
2022/07/03 04:13:15;;;;;;;17.55;12.70;;;;;;;15.62;74.52;101691.88;5011344;28;20416;-56
2022/07/03 04:15:40;;;;;;;17.67;12.80;;;;;;;15.62;75.08;101686.59;5009754;28;20022;-56
2022/07/03 04:18:06;;;;;;;16.13;12.35;;;;;;;15.64;74.39;101683.16;5011377;28;20033;-52
2022/07/03 04:20:31;;;;;;;16.73;12.85;;;;;;;15.65;74.88;101694.53;5010850;28;20029;-52
2022/07/03 04:22:57;;;;;;;18.38;13.27;;;;;;;15.67;74.67;101697.19;5009331;28;20088;-52
2022/07/03 04:25:23;;;;;;;16.60;13.07;;;;;;;15.66;74.80;101693.69;5008028;28;20030;-52
2022/07/03 04:27:48;;;;;;;14.77;11.90;;;;;;;15.68;74.46;101693.72;5011671;28;20053;-52
2022/07/03 04:30:14;;;;;;;15.57;11.77;;;;;;;15.70;73.99;101697.22;5012263;28;20029;-53
2022/07/03 04:32:39;;;;;;;14.35;11.75;;;;;;;15.67;74.87;101700.72;5010641;28;20512;-53
2022/07/03 04:35:05;;;;;;;16.77;11.60;;;;;;;15.67;74.21;101700.72;5012278;28;20223;-53
2022/07/03 04:37:31;;;;;;;17.08;12.35;;;;;;;15.69;74.49;101708.63;5010350;28;20518;-51
2022/07/03 04:39:56;;;;;;;17.63;11.88;;;;;;;15.71;74.52;101699.88;5011186;28;20037;-51
2022/07/03 04:42:21;;;;;;;15.85;10.57;;;;;;;15.73;74.17;101708.69;5011235;28;20087;-53
2022/07/03 04:44:47;;;;;;;16.45;11.82;;;;;;;15.72;74.68;101706.91;5010277;28;20034;-51
2022/07/03 04:47:14;;;;;;;16.65;11.45;;;;;;;15.74;74.88;101706.94;5010496;28;20033;-53
2022/07/03 04:49:40;;;;;;;14.25;11.05;;;;;;;15.75;74.91;101712.22;5010578;28;20488;-52
2022/07/03 04:52:05;;;;;;;14.25;11.25;;;;;;;15.75;74.75;101712.22;5009602;28;20493;-51
2022/07/03 04:54:31;;;;;;;13.23;10.40;;;;;;;15.77;75.29;101721.03;5011105;28;20126;-53
2022/07/03 04:56:56;;;;;;;18.20;11.15;;;;;;;15.78;75.02;101714.91;5010370;28;20108;-53
2022/07/03 04:59:21;;;;;;;15.23;11.30;;;;;;;15.82;75.20;101723.75;5010812;28;20104;-53
2022/07/03 05:01:49;;;;;;;16.50;11.30;;;;;;;15.82;74.42;101718.50;5009202;28;20033;-53
2022/07/03 05:04:15;;;;;;;14.48;10.85;;;;;;;15.84;74.63;101714.13;5010587;28;20078;-54
2022/07/03 05:06:40;;;;;;;14.88;10.82;;;;;;;15.86;74.81;101719.41;5009535;28;20202;-53
2022/07/03 05:09:05;;;;;;;16.58;11.60;;;;;;;15.83;74.66;101715.03;5009736;28;20496;-52
2022/07/03 05:11:31;;;;;;;16.25;11.30;;;;;;;15.86;74.18;101708.91;5008632;28;20022;-53
2022/07/03 05:13:56;;;;;;;16.02;11.40;;;;;;;15.85;74.67;101713.28;5010311;28;20087;-54
2022/07/03 05:16:22;;;;;;;17.38;11.48;;;;;;;15.87;73.49;101705.44;5009887;28;20068;-52
2022/07/03 05:18:47;;;;;;;16.42;11.65;;;;;;;15.84;74.41;101718.53;5010744;28;20057;-53
2022/07/03 05:21:12;;;;;;;17.50;11.82;;;;;;;15.86;74.23;101715.06;5009409;28;20029;-53
2022/07/03 05:23:37;;;;;;;18.27;11.38;;;;;;;15.88;74.22;101717.72;5010009;28;20485;-53
2022/07/03 05:26:03;;;;;;;17.90;12.23;;;;;;;15.90;74.03;101721.25;5010614;28;20512;-53
2022/07/03 05:28:28;;;;;;;16.08;10.98;;;;;;;15.92;74.33;101727.41;5009159;28;20014;-52
2022/07/03 05:30:54;;;;;;;16.13;11.85;;;;;;;15.89;74.49;101724.72;5009618;28;20068;-53
2022/07/03 05:33:19;;;;;;;15.70;11.73;;;;;;;15.85;74.36;101725.56;5009256;28;20041;-52
2022/07/03 05:35:45;;;;;;;14.60;10.88;;;;;;;15.83;74.17;101722.91;5010915;28;20113;-53
2022/07/03 05:38:10;;;;;;;15.93;11.35;;;;;;;15.85;74.32;101725.56;5009946;28;20076;-53
2022/07/03 05:40:35;;;;;;;16.58;11.70;;;;;;;15.86;74.71;101725.56;5008660;28;20033;-53
2022/07/03 05:43:01;;;;;;;17.20;11.80;;;;;;;15.89;74.72;101735.22;5010099;28;20057;-53
2022/07/03 05:45:26;;;;;;;17.63;11.93;;;;;;;15.89;75.58;101732.59;5010667;28;20030;-53
2022/07/03 05:47:51;;;;;;;17.52;11.82;;;;;;;15.88;75.35;101734.34;5010048;28;20068;-52
2022/07/03 05:50:17;;;;;;;20.40;11.82;;;;;;;15.86;76.25;101729.94;5009356;28;20029;-54
2022/07/03 05:52:42;;;;;;;16.50;11.13;;;;;;;15.90;76.33;101730.03;5008400;28;20385;-53
2022/07/03 05:55:08;;;;;;;17.77;10.93;;;;;;;15.94;75.58;101739.69;5008555;28;20026;-54
2022/07/03 05:57:33;;;;;;;15.85;10.35;;;;;;;15.97;75.93;101736.25;5008905;28;20056;-53
2022/07/03 05:59:58;;;;;;;15.10;9.95;;;;;;;16.04;75.23;101729.34;5009608;28;20108;-52
2022/07/03 06:02:24;;;;;;;15.70;9.68;;;;;;;16.07;74.34;101746.03;5010265;28;20037;-53
2022/07/03 06:04:49;;;;;;;15.27;9.75;;;;;;;16.11;75.33;101742.59;5009861;28;20136;-53
2022/07/03 06:07:16;;;;;;;15.77;10.02;;;;;;;16.19;75.48;101739.19;5009590;28;20105;-53
2022/07/03 06:09:42;;;;;;;15.98;9.75;;;;;;;16.23;75.16;101741.91;5009854;28;20045;-52
2022/07/03 06:12:07;;;;;;;15.00;9.85;;;;;;;16.30;75.62;101751.63;5010021;28;20389;-53
2022/07/03 06:14:33;;;;;;;13.07;9.80;;;;;;;16.34;75.66;101749.97;5010010;28;20177;-53
2022/07/03 06:16:58;;;;;;;13.70;9.60;;;;;;;16.41;75.35;101749.19;5008122;28;20033;-51
2022/07/03 06:19:23;;;;;;;15.60;9.75;;;;;;;16.47;76.04;101746.63;5008245;28;20619;-53
2022/07/03 06:21:49;;;;;;;14.82;9.90;;;;;;;16.56;76.30;101753.75;5008361;28;20041;-53
2022/07/03 06:24:14;;;;;;;17.17;10.10;;;;;;;16.67;76.33;101746.03;5009729;28;20129;-52
2022/07/03 06:26:39;;;;;;;15.68;9.88;;;;;;;16.74;76.40;101750.47;5007808;28;20068;-52
2022/07/03 06:29:05;;;;;;;16.63;9.90;;;;;;;16.79;75.41;101747.91;5008929;28;20030;-52
2022/07/03 06:31:31;;;;;;;14.80;9.65;;;;;;;16.86;75.98;101750.63;5004774;28;20543;-52
2022/07/03 06:33:57;;;;;;;18.80;10.35;;;;;;;16.91;75.74;101742.81;5009259;28;20025;-53
2022/07/03 06:36:22;;;;;;;14.38;9.27;;;;;;;17.00;75.43;101747.31;5009585;28;20030;-53
2022/07/03 06:38:47;;;;;;;16.08;9.50;;;;;;;17.08;76.22;101750.94;5005466;28;20022;-52
2022/07/03 06:41:13;;;;;;;20.13;11.80;;;;;;;17.15;75.40;101755.41;5006356;28;20516;-52
2022/07/03 06:43:39;;;;;;;16.77;9.68;;;;;;;17.22;75.84;101751.09;5009795;28;20474;-53
2022/07/03 06:46:04;;;;;;;13.80;8.00;;;;;;;17.29;74.89;101754.66;5009409;28;20030;-52
2022/07/03 06:48:29;;;;;;;17.83;8.73;;;;;;;17.35;74.46;101754.69;5009203;28;20029;-52
2022/07/03 06:50:54;;;;;;;15.38;8.35;;;;;;;17.40;73.83;101753.00;5007930;28;20022;-53
2022/07/03 06:53:20;;;;;;;16.23;8.15;;;;;;;17.45;73.36;101739.88;5008883;28;20030;-53
2022/07/03 06:55:45;;;;;;;13.65;7.68;;;;;;;17.49;73.98;101753.09;5008931;28;20014;-53
2022/07/03 06:58:10;;;;;;;15.68;7.70;;;;;;;17.54;73.10;101750.53;5009200;28;20079;-53
2022/07/03 07:00:38;;;;;;;15.50;8.30;;;;;;;17.60;74.27;101749.66;5009294;28;20025;-53
2022/07/03 07:03:04;;;;;;;18.80;8.35;;;;;;;17.64;73.31;101752.38;5010948;28;20041;-53
2022/07/03 07:05:30;;;;;;;14.57;8.23;;;;;;;17.69;74.01;101752.41;5012759;28;20042;-53
2022/07/03 07:07:55;;;;;;;16.08;8.70;;;;;;;17.76;73.73;101746.31;5014123;28;20108;-52
2022/07/03 07:10:20;;;;;;;15.88;8.25;;;;;;;17.79;72.19;101748.97;5013430;28;20030;-53
2022/07/03 07:12:46;;;;;;;16.13;7.75;;;;;;;17.80;72.11;101753.38;5014116;28;20428;-51
2022/07/03 07:15:11;;;;;;;13.50;7.90;;;;;;;17.83;72.65;101756.03;5013112;28;20064;-54
2022/07/03 07:17:36;;;;;;;14.35;8.63;;;;;;;17.92;73.28;101754.41;4996336;28;20045;-56
2022/07/03 07:20:02;;;;;;;13.40;7.97;;;;;;;17.97;72.75;101755.28;5015735;28;20037;-56
2022/07/03 07:22:28;;;;;;;15.18;7.97;;;;;;;18.02;72.81;101751.81;5010933;28;20037;-56
2022/07/03 07:24:53;;;;;;;15.27;8.60;;;;;;;18.09;72.18;101763.31;5018001;28;20032;-56
2022/07/03 07:27:18;;;;;;;13.70;8.57;;;;;;;18.14;72.90;101758.06;5015214;28;20581;-56
2022/07/03 07:29:44;;;;;;;16.00;9.18;;;;;;;18.20;72.33;101758.09;5013239;28;20064;-56
2022/07/03 07:32:09;;;;;;;13.70;7.93;;;;;;;18.28;72.50;101761.69;5012284;28;20535;-56
2022/07/03 07:34:35;;;;;;;14.73;8.25;;;;;;;18.33;71.88;101759.94;5017696;28;20025;-56
2022/07/03 07:37:00;;;;;;;15.35;8.30;;;;;;;18.39;72.11;101769.66;5009771;28;20026;-56
2022/07/03 07:39:25;;;;;;;14.95;7.93;;;;;;;18.45;71.60;101771.44;5015959;28;20061;-56
2022/07/03 07:41:51;;;;;;;16.75;8.63;;;;;;;18.52;72.73;101782.03;5009368;28;20034;-56
2022/07/03 07:44:16;;;;;;;14.63;7.20;;;;;;;18.57;71.87;101772.41;5017331;28;20050;-56
2022/07/03 07:46:41;;;;;;;10.52;6.32;;;;;;;18.66;70.38;101773.31;5011010;28;20080;-52
2022/07/03 07:49:06;;;;;;;9.52;6.28;;;;;;;18.71;70.26;101771.56;5016866;28;20033;-52
2022/07/03 07:51:32;;;;;;;10.55;5.70;;;;;;;18.78;69.77;101773.38;5010679;28;20029;-52
2022/07/03 07:53:59;;;;;;;11.20;7.00;;;;;;;18.82;70.17;101772.50;5020779;28;20022;-52
2022/07/03 07:56:25;;;;;;;13.32;7.30;;;;;;;18.87;69.97;101772.56;5010804;28;20524;-53
2022/07/03 07:58:51;;;;;;;13.07;6.95;;;;;;;18.88;68.40;101771.69;5011958;28;20022;-53
2022/07/03 08:06:49;;;;;;;11.68;6.88;;;;;;;19.04;68.81;101772.63;5008895;28;20123;-53
2022/07/03 08:09:14;;;;;;;13.70;7.80;;;;;;;19.05;68.44;101777.03;5020587;28;20033;-53
2022/07/03 08:11:40;;;;;;;15.00;7.50;;;;;;;19.15;72.81;101784.13;5023220;28;20039;-54
2022/07/03 08:14:07;;;;;;;10.40;6.80;;;;;;;19.22;70.42;101777.06;5016619;28;20528;-53
2022/07/03 08:16:33;;;;;;;13.60;7.78;;;;;;;19.27;69.05;101778.84;5016999;28;20025;-53
2022/07/03 08:18:59;;;;;;;13.30;6.45;;;;;;;19.29;68.26;101777.13;5016505;28;20409;-54
2022/07/03 08:21:24;;;;;;;14.95;7.95;;;;;;;19.34;68.78;101777.13;5016408;28;20025;-53
2022/07/03 08:23:49;;;;;;;13.18;7.85;;;;;;;19.39;68.79;101778.03;5019172;28;20469;-53
2022/07/03 08:26:15;;;;;;;14.00;9.02;;;;;;;19.47;69.38;101783.31;5011706;28;20514;-53
2022/07/03 08:28:40;;;;;;;13.88;7.70;;;;;;;19.56;68.55;101780.66;5012890;28;20026;-53
2022/07/03 08:31:05;;;;;;;14.88;7.85;;;;;;;19.60;68.16;101771.88;5012393;28;20022;-53
2022/07/03 08:33:31;;;;;;;15.30;7.63;;;;;;;19.69;69.70;101768.34;5012434;28;20068;-52
2022/07/03 08:35:56;;;;;;;15.73;8.27;;;;;;;19.79;68.49;101771.91;5011594;28;20026;-52
2022/07/03 08:38:35;;;;;;;12.63;7.13;;;;;;;19.85;67.38;101771.91;5012693;28;20033;-53
2022/07/03 08:41:03;;;;;;;12.82;7.72;;;;;;;19.90;67.97;101772.81;5011737;28;20061;-53
2022/07/03 08:43:29;;;;;;;13.95;8.23;;;;;;;19.98;69.16;101772.78;5012360;28;20036;-53
2022/07/03 08:45:55;;;;;;;13.98;8.40;;;;;;;20.04;68.51;101763.97;5012215;28;20030;-53
2022/07/03 08:48:22;;;;;;;14.52;9.25;;;;;;;20.11;68.80;101768.38;5012221;28;20310;-56
2022/07/03 08:50:48;;;;;;;11.77;8.40;;;;;;;20.13;67.43;101767.50;5009883;28;20021;-56
2022/07/03 08:53:15;;;;;;;13.40;8.07;;;;;;;20.21;68.83;101770.13;5011228;28;20030;-56
2022/07/03 08:55:40;;;;;;;12.68;7.50;;;;;;;20.26;66.53;101768.38;5011737;28;20104;-57
2022/07/03 08:58:10;;;;;;;12.13;7.82;;;;;;;20.32;66.10;101771.00;5012021;28;20133;-56
2022/07/03 09:00:35;;;;;;;12.15;6.97;;;;;;;20.39;65.86;101768.31;5011079;28;20030;-56
2022/07/03 09:03:04;;;;;;;12.13;7.03;;;;;;;20.49;66.02;101770.06;5012314;28;20381;-56
2022/07/03 09:05:30;;;;;;;11.10;6.68;;;;;;;20.54;64.31;101770.94;5010848;28;20513;-57
2022/07/03 09:07:58;;;;;;;11.95;6.07;;;;;;;20.59;65.24;101762.97;5011809;28;20056;-56
2022/07/03 09:10:24;;;;;;;11.55;6.38;;;;;;;20.62;64.70;101760.31;5010915;28;20053;-57
2022/07/03 09:12:49;;;;;;;12.20;6.15;;;;;;;20.66;65.57;101759.41;5011261;28;20034;-57
2022/07/03 09:15:15;;;;;;;11.57;6.20;;;;;;;20.71;66.83;101765.63;5010654;28;20026;-56
2022/07/03 09:17:56;;;;;;;11.55;6.20;;;;;;;20.79;66.08;101766.44;5011121;28;20382;-53
2022/07/03 09:20:31;;;;;;;13.38;6.95;;;;;;;20.85;65.94;101762.91;5011365;28;20033;-53
2022/07/03 09:23:08;;;;;;;13.82;6.90;;;;;;;20.91;66.54;101767.28;5011768;28;20022;-53
2022/07/03 09:25:34;;;;;;;14.15;7.43;;;;;;;20.98;67.03;101769.03;5010656;28;20013;-54
2022/07/03 09:27:59;;;;;;;15.70;8.13;;;;;;;21.02;63.98;101774.28;5009829;28;20038;-53
2022/07/03 09:30:26;;;;;;;12.27;7.90;;;;;;;21.01;63.95;101774.31;5009927;28;20025;-52
2022/07/03 09:32:51;;;;;;;11.93;8.13;;;;;;;21.02;64.31;101776.94;5011386;28;20026;-54
2022/07/03 09:35:25;;;;;;;10.73;8.13;;;;;;;21.05;63.42;101776.06;5011517;28;20156;-52
2022/07/03 09:37:58;;;;;;;12.25;9.00;;;;;;;21.07;63.41;101776.03;5010570;28;20041;-53
2022/07/03 09:40:25;;;;;;;11.90;8.95;;;;;;;21.09;63.57;101787.53;5010390;28;20029;-52
2022/07/03 09:43:04;;;;;;;15.02;9.73;;;;;;;21.09;63.58;101784.88;5011121;28;20036;-54
2022/07/03 09:45:50;;;;;;;17.05;10.32;;;;;;;21.13;64.33;101790.16;5010705;28;20037;-52
2022/07/03 09:48:22;;;;;;;15.30;11.75;;;;;;;21.15;64.77;101792.78;5009404;28;20489;-53
2022/07/03 09:50:47;;;;;;;17.25;11.80;;;;;;;21.25;65.59;101789.22;5000082;28;20056;-53
2022/07/03 09:53:13;;;;;;;15.55;11.15;;;;;;;21.30;64.86;101791.81;5010872;28;20401;-52
2022/07/03 09:55:38;;;;;;;13.32;10.73;;;;;;;21.40;65.06;101792.66;5011017;28;20420;-53
2022/07/03 09:58:04;;;;;;;12.75;11.45;;;;;;;21.49;62.24;101784.63;5009981;28;20065;-53
2022/07/03 10:00:31;;;;;;;12.68;11.30;;;;;;;21.52;61.23;101782.88;5009111;28;20041;-53
2022/07/03 10:02:59;;;;;;;12.55;11.25;;;;;;;21.57;61.43;101789.94;5010031;28;20053;-53
2022/07/03 10:05:37;;;;;;;13.38;11.98;;;;;;;21.60;61.51;101795.22;5009951;28;20063;-54
2022/07/03 10:08:04;;;;;;;12.13;10.77;;;;;;;21.64;59.86;101792.53;5009411;28;20026;-54
2022/07/03 10:10:32;;;;;;;12.38;10.88;;;;;;;21.68;61.50;101788.97;5010648;28;20022;-52
2022/07/03 10:12:59;;;;;;;11.33;10.13;;;;;;;21.75;59.03;101773.84;5010735;28;20470;-53
2022/07/03 10:15:26;;;;;;;11.27;10.18;;;;;;;21.77;60.68;101782.69;5010097;28;20899;-52
2022/07/03 10:17:53;;;;;;;10.63;9.55;;;;;;;21.83;61.67;101792.38;5009654;28;20026;-53
2022/07/03 10:20:32;;;;;;;12.60;10.82;;;;;;;21.82;60.84;101788.84;5010514;28;20032;-53
2022/07/03 10:22:57;;;;;;;12.23;11.00;;;;;;;21.82;60.13;101791.47;5010539;28;20030;-52
2022/07/03 10:25:23;;;;;;;11.98;10.32;;;;;;;21.84;60.76;101792.38;5009769;28;20404;-54
2022/07/03 10:27:49;;;;;;;13.15;11.57;;;;;;;21.84;60.38;101791.47;5010734;28;20060;-56
2022/07/03 10:30:20;;;;;;;12.38;10.98;;;;;;;21.81;59.88;101797.69;5010605;28;20092;-56
2022/07/03 10:32:48;;;;;;;12.18;10.90;;;;;;;21.78;59.67;101795.03;5010257;28;20068;-56
2022/07/03 10:35:19;;;;;;;14.38;10.45;;;;;;;21.84;62.56;101802.09;5009404;28;20054;-56
2022/07/03 10:38:02;;;;;;;12.43;10.35;;;;;;;21.90;61.51;101804.72;5010116;28;20386;-56
2022/07/03 10:46:33;;;;;;;11.63;9.25;;;;;;;21.93;58.70;101802.03;5010649;28;20118;-57
2022/07/03 10:49:01;;;;;;;11.07;8.13;;;;;;;21.98;59.48;101796.66;5010355;28;20236;-56
2022/07/03 10:51:30;;;;;;;9.63;6.80;;;;;;;22.02;58.50;101796.63;5010576;28;20033;-56
2022/07/03 10:54:14;;;;;;;8.88;6.55;;;;;;;22.04;58.97;101797.50;5009109;28;20481;-54
2022/07/03 10:56:58;;;;;;;8.35;5.60;;;;;;;21.99;57.32;101799.31;5010319;28;20097;-56
2022/07/03 10:59:44;;;;;;;9.70;7.35;;;;;;;22.04;59.78;101801.91;5010204;28;20037;-56
2022/07/03 11:02:21;;;;;;;8.15;6.60;;;;;;;22.10;58.90;101804.53;4997735;28;20088;-56
2022/07/03 11:05:01;;;;;;;10.13;6.43;;;;;;;22.09;57.89;101809.84;5009152;28;20456;-56
2022/07/03 11:07:45;;;;;;;8.82;6.25;;;;;;;22.05;57.88;101801.91;5008522;28;20028;-56
2022/07/03 11:10:13;;;;;;;8.73;6.10;;;;;;;21.94;54.66;101798.50;5009069;28;20065;-56
2022/07/03 11:12:57;;;;;;;8.00;5.53;;;;;;;21.94;57.96;101801.16;5010337;28;20465;-56
2022/07/03 11:15:39;;;;;;;9.73;7.03;;;;;;;21.94;58.36;101789.63;5010119;28;20036;-55
2022/07/03 11:18:10;;;;;;;11.07;7.55;;;;;;;21.95;58.25;101792.25;5009267;28;20033;-56
2022/07/03 11:20:41;;;;;;;8.75;7.10;;;;;;;22.09;61.58;101792.16;5010162;28;20028;-56
2022/07/03 11:23:09;;;;;;;9.20;6.82;;;;;;;22.20;61.45;101784.97;5010039;28;20030;-56
2022/07/03 11:25:45;;;;;;;7.77;6.97;;;;;;;22.34;60.77;101779.53;5009874;28;20041;-56
2022/07/03 11:28:32;;;;;;;12.15;9.25;;;;;;;22.35;57.15;101770.69;5009275;28;20037;-56
2022/07/03 11:31:16;;;;;;;11.65;10.25;;;;;;;22.38;57.56;101783.06;5009895;28;20030;-56
2022/07/03 11:33:49;;;;;;;11.88;9.80;;;;;;;22.39;57.17;101776.81;5009700;28;20037;-56